createdAt,value
2022-10-04T00:00:37.885Z,10.98
2022-10-04T00:03:30.090Z,11.27
2022-10-04T00:06:26.061Z,10.82
2022-10-04T00:09:19.492Z,10.85
2022-10-04T00:12:06.010Z,10.30
2022-10-04T00:14:54.758Z,10.35
2022-10-04T00:17:40.194Z,10.77
2022-10-04T00:20:51.797Z,10.70
2022-10-04T00:23:37.446Z,10.45
2022-10-04T00:26:43.238Z,10.63
2022-10-04T00:29:39.248Z,10.13
2022-10-04T00:32:28.430Z,10.90
2022-10-04T00:35:29.807Z,10.02
2022-10-04T00:38:25.091Z,10.85
2022-10-04T00:41:13.493Z,10.88
2022-10-04T00:43:59.843Z,10.02
2022-10-04T00:46:46.787Z,10.88
2022-10-04T00:49:41.675Z,10.45
2022-10-04T00:52:31.491Z,10.10
2022-10-04T00:55:47.626Z,10.45
2022-10-04T00:58:38.506Z,10.38
2022-10-04T01:01:27.943Z,10.65
2022-10-04T01:04:37.063Z,9.75
2022-10-04T01:07:38.631Z,10.43
2022-10-04T01:10:31.705Z,9.60
2022-10-04T01:13:20.946Z,8.88
2022-10-04T01:16:18.752Z,9.68
2022-10-04T01:19:20.753Z,9.90
2022-10-04T01:22:14.576Z,9.57
2022-10-04T01:25:00.476Z,9.35
2022-10-04T01:27:49.283Z,9.23
2022-10-04T01:30:35.350Z,10.13
2022-10-04T01:33:21.110Z,9.27
2022-10-04T01:36:07.095Z,9.35
2022-10-04T01:38:53.067Z,9.75
2022-10-04T01:42:01.080Z,8.65
2022-10-04T01:45:05.967Z,8.80
2022-10-04T01:48:04.579Z,8.93
2022-10-04T01:51:05.472Z,9.10
2022-10-04T01:54:07.064Z,9.90
2022-10-04T01:57:16.660Z,9.15
2022-10-04T02:00:08.573Z,9.68
2022-10-04T02:03:22.604Z,9.15
2022-10-04T02:08:57.666Z,8.45
2022-10-04T02:11:45.017Z,8.85
2022-10-04T02:14:33.322Z,8.60
2022-10-04T02:17:28.516Z,8.55
2022-10-04T02:20:23.962Z,8.57
2022-10-04T02:23:11.226Z,8.98
2022-10-04T02:25:56.918Z,8.85
2022-10-04T02:28:42.753Z,8.45
2022-10-04T02:31:47.810Z,8.70
2022-10-04T02:34:34.590Z,9.23
2022-10-04T02:37:26.074Z,8.90
2022-10-04T02:40:21.666Z,8.52
2022-10-04T02:43:16.926Z,8.45
2022-10-04T02:46:21.937Z,8.13
2022-10-04T02:49:38.072Z,8.52
2022-10-04T02:52:33.874Z,8.68
2022-10-04T02:55:22.597Z,8.55
2022-10-04T02:58:18.357Z,8.32
2022-10-04T03:01:04.746Z,8.60
2022-10-04T03:03:50.437Z,9.00
2022-10-04T03:06:36.045Z,8.65
2022-10-04T03:09:27.421Z,9.10
2022-10-04T03:12:16.121Z,9.30
2022-10-04T03:15:01.662Z,9.48
2022-10-04T03:17:47.330Z,8.95
2022-10-04T03:20:37.766Z,8.98
2022-10-04T03:23:23.635Z,9.55
2022-10-04T03:26:33.944Z,9.68
2022-10-04T03:29:23.744Z,11.52
2022-10-04T03:32:14.589Z,10.98
2022-10-04T03:35:07.644Z,12.77
2022-10-04T03:37:55.057Z,15.80
2022-10-04T03:40:45.360Z,18.55
2022-10-04T03:43:34.293Z,21.27
2022-10-04T03:46:22.899Z,23.13
2022-10-04T03:49:09.212Z,25.67
2022-10-04T03:51:55.304Z,27.45
2022-10-04T03:54:41.295Z,26.42
2022-10-04T03:57:27.230Z,26.48
2022-10-04T04:00:18.947Z,26.75
2022-10-04T04:03:09.246Z,25.70
2022-10-04T04:05:59.846Z,25.58
2022-10-04T04:08:49.135Z,27.67
2022-10-04T04:11:36.782Z,24.70
2022-10-04T04:14:28.137Z,25.58
2022-10-04T04:17:27.316Z,24.35
2022-10-04T04:20:20.034Z,25.38
2022-10-04T04:23:17.747Z,25.17
2022-10-04T04:26:12.620Z,27.40
2022-10-04T04:29:04.670Z,26.23
2022-10-04T04:31:59.685Z,26.17
2022-10-04T04:34:57.058Z,26.85
2022-10-04T04:37:42.923Z,25.77
2022-10-04T04:40:28.534Z,26.20
2022-10-04T04:43:20.079Z,25.33
2022-10-04T04:46:26.675Z,26.08
2022-10-04T04:49:16.753Z,25.95
2022-10-04T04:52:03.512Z,26.80
2022-10-04T04:54:50.044Z,26.00
2022-10-04T04:57:38.979Z,26.77
2022-10-04T05:00:31.462Z,25.67
2022-10-04T05:03:19.966Z,25.37
2022-10-04T05:06:21.964Z,27.40
2022-10-04T05:09:22.563Z,26.85
2022-10-04T05:12:18.773Z,27.27
2022-10-04T05:15:04.679Z,28.25
2022-10-04T05:17:50.306Z,30.65
2022-10-04T05:20:36.092Z,22.92
2022-10-04T05:40:58.276Z,22.75
2022-10-04T05:43:52.724Z,23.30
2022-10-04T05:46:43.965Z,21.48
2022-10-04T05:49:36.757Z,21.17
2022-10-04T05:52:35.985Z,22.00
2022-10-04T05:55:29.080Z,24.60
2022-10-04T05:58:29.810Z,22.08
2022-10-04T06:01:42.557Z,24.30
2022-10-04T06:04:37.420Z,24.98
2022-10-04T06:07:32.886Z,26.38
2022-10-04T06:10:37.152Z,24.63
2022-10-04T06:13:59.476Z,21.92
2022-10-04T06:17:07.389Z,20.75
2022-10-04T06:20:08.197Z,17.50
2022-10-04T06:23:03.102Z,15.98
2022-10-04T06:26:00.787Z,15.50
2022-10-04T06:29:00.092Z,13.77
2022-10-04T06:32:02.176Z,13.93
2022-10-04T06:35:06.349Z,13.40
2022-10-04T06:38:14.242Z,12.65
2022-10-04T06:41:09.130Z,12.85
2022-10-04T06:44:20.141Z,12.65
2022-10-04T06:47:24.226Z,11.85
2022-10-04T06:50:24.532Z,11.18
2022-10-04T06:53:15.531Z,12.13
2022-10-04T06:56:28.368Z,12.50
2022-10-04T06:59:34.883Z,13.55
2022-10-04T07:02:29.231Z,12.15
2022-10-04T07:05:30.800Z,12.82
2022-10-04T07:08:47.888Z,13.43
2022-10-04T07:11:45.966Z,14.40
2022-10-04T07:14:37.692Z,14.07
2022-10-04T07:17:32.805Z,13.70
2022-10-04T07:20:27.462Z,15.77
2022-10-04T07:23:27.566Z,17.75
2022-10-04T07:26:36.433Z,17.73
2022-10-04T07:29:35.209Z,24.42
2022-10-04T07:32:30.183Z,23.95
2022-10-04T07:35:34.736Z,25.20
2022-10-04T07:38:32.929Z,25.10
2022-10-04T07:41:31.858Z,23.08
2022-10-04T07:44:28.201Z,23.45
2022-10-04T07:47:27.907Z,23.45
2022-10-04T07:50:28.310Z,22.88
2022-10-04T07:53:42.812Z,22.13
2022-10-04T07:56:47.402Z,21.20
2022-10-04T07:59:42.223Z,21.90
2022-10-04T08:03:10.491Z,20.42
2022-10-04T08:06:39.316Z,19.67
2022-10-04T08:09:48.125Z,19.45
2022-10-04T08:13:08.966Z,19.83
2022-10-04T08:16:03.189Z,18.05
2022-10-04T08:19:13.313Z,18.20
2022-10-04T08:22:19.178Z,17.08
2022-10-04T08:25:27.859Z,21.65
2022-10-04T08:29:06.707Z,22.75
2022-10-04T08:32:10.767Z,20.42
2022-10-04T08:35:16.358Z,18.83
2022-10-04T08:38:47.944Z,18.10
2022-10-04T08:42:08.099Z,19.42
2022-10-04T08:45:08.791Z,16.52
2022-10-04T08:48:14.490Z,19.13
2022-10-04T08:51:03.175Z,18.20
2022-10-04T08:53:48.915Z,17.65
2022-10-04T08:57:04.054Z,17.40
2022-10-04T09:00:01.934Z,16.50
2022-10-04T09:03:26.740Z,19.38
2022-10-04T09:06:25.929Z,18.25
2022-10-04T09:09:37.096Z,17.20
2022-10-04T09:13:00.327Z,18.92
2022-10-04T09:15:52.589Z,18.53
2022-10-04T09:19:00.438Z,18.17
2022-10-04T09:22:21.829Z,20.75
2022-10-04T09:25:33.390Z,19.65
2022-10-04T09:28:38.289Z,20.27
2022-10-04T09:31:52.044Z,20.70
2022-10-04T09:34:55.218Z,21.90
2022-10-04T09:38:23.707Z,23.10
2022-10-04T09:41:27.930Z,23.48
2022-10-04T09:44:15.140Z,22.65
2022-10-04T09:47:25.590Z,23.08
2022-10-04T09:50:18.731Z,23.58
2022-10-04T09:53:23.056Z,24.70
2022-10-04T09:56:26.883Z,24.27
2022-10-04T09:59:27.604Z,24.90
2022-10-04T10:02:38.744Z,24.63
2022-10-04T10:05:50.806Z,25.75
2022-10-04T10:09:06.549Z,25.45
2022-10-04T10:12:40.184Z,23.92
2022-10-04T10:15:39.864Z,21.77
2022-10-04T10:19:00.004Z,22.42
2022-10-04T10:22:07.304Z,21.98
2022-10-04T10:24:56.179Z,22.40
2022-10-04T10:27:56.886Z,22.58
2022-10-04T10:31:04.229Z,22.13
2022-10-04T10:34:11.288Z,21.83
2022-10-04T10:37:22.437Z,20.98
2022-10-04T10:40:41.656Z,19.90
2022-10-04T10:43:31.289Z,20.25
2022-10-04T10:46:35.164Z,22.05
2022-10-04T10:49:36.316Z,19.42
2022-10-04T10:52:46.109Z,19.30
2022-10-04T10:55:57.954Z,19.92
2022-10-04T10:59:22.481Z,17.17
2022-10-04T11:02:50.044Z,18.75
2022-10-04T11:05:58.259Z,18.80
2022-10-04T11:09:08.781Z,19.67
2022-10-04T11:12:29.521Z,19.73
2022-10-04T11:15:33.937Z,19.52
2022-10-04T11:18:50.773Z,19.15
2022-10-04T11:21:55.539Z,19.90
2022-10-04T11:25:08.099Z,18.60
2022-10-04T11:27:57.411Z,18.23
2022-10-04T11:31:23.724Z,18.33
2022-10-04T11:34:42.991Z,17.40
2022-10-04T11:37:53.841Z,16.80
2022-10-04T11:41:00.044Z,17.20
2022-10-04T11:43:57.657Z,16.63
2022-10-04T11:46:43.603Z,17.17
2022-10-04T11:49:56.687Z,16.70
2022-10-04T11:53:11.898Z,14.73
2022-10-04T11:56:12.804Z,15.40
2022-10-04T11:59:00.996Z,16.05
2022-10-04T12:02:23.583Z,16.67
2022-10-04T12:05:39.815Z,15.18
2022-10-04T12:09:14.054Z,17.00
2022-10-04T12:12:24.535Z,15.65
2022-10-04T12:15:49.367Z,16.73
2022-10-04T12:19:12.985Z,16.73
2022-10-04T12:22:11.592Z,16.95
2022-10-04T12:25:09.275Z,16.23
2022-10-04T12:28:12.470Z,15.32
2022-10-04T12:31:16.586Z,16.33
2022-10-04T12:34:14.970Z,15.27
2022-10-04T12:37:23.719Z,13.35
2022-10-04T12:40:12.581Z,15.10
2022-10-04T12:43:33.514Z,13.90
2022-10-04T12:46:29.337Z,15.35
2022-10-04T12:49:20.789Z,13.73
2022-10-04T12:52:23.387Z,14.13
2022-10-04T12:55:40.898Z,15.88
2022-10-04T12:58:47.198Z,16.45
2022-10-04T13:01:35.960Z,15.45
2022-10-04T13:04:21.690Z,15.68
2022-10-04T13:07:29.453Z,17.02
2022-10-04T13:10:35.735Z,15.70
2022-10-04T13:13:27.337Z,16.42
2022-10-04T13:19:50.189Z,15.30
2022-10-04T13:22:56.416Z,13.52
2022-10-04T13:25:54.592Z,14.93
2022-10-04T13:29:04.348Z,13.32
2022-10-04T13:32:19.158Z,14.82
2022-10-04T13:35:20.750Z,15.48
2022-10-04T13:38:38.098Z,16.05
2022-10-04T13:41:35.506Z,13.77
2022-10-04T13:45:00.129Z,15.55
2022-10-04T13:47:59.921Z,14.70
2022-10-04T13:51:33.415Z,15.27
2022-10-04T13:54:56.129Z,16.45
2022-10-04T13:58:22.544Z,16.67
2022-10-04T14:01:35.571Z,15.60
2022-10-04T14:04:24.283Z,17.45
2022-10-04T14:07:35.212Z,15.85
2022-10-04T14:10:58.560Z,14.85
2022-10-04T14:14:18.219Z,16.73
2022-10-04T14:17:22.879Z,15.48
2022-10-04T14:20:39.081Z,16.55
2022-10-04T14:23:39.857Z,17.40
2022-10-04T14:26:55.131Z,16.20
2022-10-04T14:30:07.991Z,15.02
2022-10-04T14:33:02.294Z,16.25
2022-10-04T14:36:16.038Z,15.45
2022-10-04T14:39:17.016Z,14.63
2022-10-04T14:42:31.605Z,17.55
2022-10-04T14:45:26.597Z,15.13
2022-10-04T14:48:39.486Z,15.50
2022-10-04T14:51:32.367Z,15.40
2022-10-04T14:54:28.932Z,15.05
2022-10-04T14:57:22.290Z,14.85
2022-10-04T15:00:08.815Z,14.40
2022-10-04T15:02:54.415Z,14.48
2022-10-04T15:06:06.656Z,13.75
2022-10-04T15:09:23.980Z,12.77
2022-10-04T15:13:08.727Z,13.77
2022-10-04T15:16:02.829Z,12.68
2022-10-04T15:19:05.874Z,14.00
2022-10-04T15:22:11.886Z,12.80
2022-10-04T15:24:59.446Z,14.82
2022-10-04T15:27:51.745Z,14.10
2022-10-04T15:30:46.855Z,13.47
2022-10-04T15:33:58.955Z,13.10
2022-10-04T15:37:06.130Z,14.15
2022-10-04T15:39:58.897Z,14.43
2022-10-04T15:43:19.135Z,13.20
2022-10-04T15:46:27.013Z,14.05
2022-10-04T15:49:18.652Z,15.70
2022-10-04T15:52:04.263Z,14.75
2022-10-04T15:55:05.210Z,15.25
2022-10-04T15:58:17.492Z,15.60
2022-10-04T16:01:26.838Z,14.63
2022-10-04T16:04:27.368Z,14.60
2022-10-04T16:07:41.511Z,15.82
2022-10-04T16:13:36.548Z,16.67
2022-10-04T16:16:31.411Z,16.63
2022-10-04T16:20:08.093Z,16.63
2022-10-04T16:23:28.357Z,17.48
2022-10-04T16:26:21.437Z,17.20
2022-10-04T16:29:28.059Z,16.85
2022-10-04T16:32:21.307Z,17.70
2022-10-04T16:35:23.173Z,17.90
2022-10-04T16:38:28.779Z,16.63
2022-10-04T16:41:29.248Z,18.25
2022-10-04T16:44:46.581Z,17.55
2022-10-04T16:47:56.428Z,16.75
2022-10-04T16:51:07.088Z,17.13
2022-10-04T16:53:56.842Z,15.55
2022-10-04T16:56:53.829Z,16.05
2022-10-04T16:59:39.550Z,17.40
2022-10-04T17:02:36.799Z,17.15
2022-10-04T17:05:47.439Z,17.52
2022-10-04T17:09:08.316Z,16.48
2022-10-04T17:12:12.046Z,17.95
2022-10-04T17:15:16.991Z,17.45
2022-10-04T17:18:08.197Z,17.63
2022-10-04T17:20:58.863Z,16.45
2022-10-04T17:24:42.206Z,17.48
2022-10-04T17:27:53.962Z,17.67
2022-10-04T17:30:58.992Z,17.90
2022-10-04T17:34:28.646Z,16.73
2022-10-04T17:37:48.521Z,17.58
2022-10-04T17:40:46.177Z,17.55
2022-10-04T17:43:31.995Z,19.08
2022-10-04T17:46:23.943Z,19.63
2022-10-04T17:50:10.874Z,20.33
2022-10-04T17:53:22.352Z,19.48
2022-10-04T17:56:11.719Z,18.00
2022-10-04T17:58:59.505Z,19.52
2022-10-04T18:01:47.726Z,19.38
2022-10-04T18:04:40.458Z,18.85
2022-10-04T18:07:33.509Z,19.92
2022-10-04T18:10:39.306Z,22.23
2022-10-04T18:13:43.535Z,22.80
2022-10-04T18:16:46.345Z,21.98
2022-10-04T18:19:36.262Z,23.30
2022-10-04T18:22:26.600Z,22.88
2022-10-04T18:25:27.223Z,22.63
2022-10-04T18:28:21.505Z,22.67
2022-10-04T18:31:30.275Z,22.48
2022-10-04T18:34:17.899Z,22.80
2022-10-04T18:37:20.740Z,21.65
2022-10-04T18:40:18.610Z,21.60
2022-10-04T18:43:40.315Z,20.00
2022-10-04T18:46:25.879Z,19.67
2022-10-04T18:49:25.162Z,19.17
2022-10-04T18:52:11.099Z,18.40
2022-10-04T18:54:59.684Z,18.35
2022-10-04T18:58:12.428Z,18.52
2022-10-04T19:01:42.162Z,18.15
2022-10-04T19:04:43.148Z,18.58
2022-10-04T19:07:38.211Z,17.58
2022-10-04T19:10:32.344Z,19.23
2022-10-04T19:13:25.031Z,18.92
2022-10-04T19:16:49.412Z,19.50
2022-10-04T19:19:53.891Z,18.80
2022-10-04T19:23:04.367Z,18.55
2022-10-04T19:29:29.963Z,18.00
2022-10-04T19:32:28.341Z,18.08
2022-10-04T19:35:45.119Z,17.42
2022-10-04T19:38:40.091Z,17.90
2022-10-04T19:41:38.274Z,17.80
2022-10-04T19:44:44.799Z,18.45
2022-10-04T19:47:51.029Z,18.30
2022-10-04T19:50:50.782Z,17.92
2022-10-04T19:53:36.984Z,18.02
2022-10-04T19:56:29.607Z,18.40
2022-10-04T19:59:36.816Z,18.63
2022-10-04T20:02:22.636Z,18.67
2022-10-04T20:05:25.113Z,17.40
2022-10-04T20:08:13.477Z,17.50
2022-10-04T20:11:16.182Z,17.70
2022-10-04T20:14:06.644Z,18.33
2022-10-04T20:16:55.167Z,16.45
2022-10-04T20:19:41.473Z,16.85
2022-10-04T20:22:29.613Z,16.13
2022-10-04T20:25:58.413Z,16.27
2022-10-04T20:28:44.171Z,15.55
2022-10-04T20:31:30.001Z,15.85
2022-10-04T20:34:38.618Z,16.20
2022-10-04T20:37:44.217Z,16.65
2022-10-04T20:40:38.924Z,17.08
2022-10-04T20:43:26.500Z,16.80
2022-10-04T20:46:22.990Z,17.23
2022-10-04T20:49:18.668Z,16.50
2022-10-04T20:52:04.515Z,17.23
2022-10-04T20:54:55.146Z,17.63
2022-10-04T20:57:41.324Z,16.63
2022-10-04T21:00:29.206Z,16.48
2022-10-04T21:03:17.780Z,15.88
2022-10-04T21:06:11.475Z,16.73
2022-10-04T21:08:57.407Z,18.00
2022-10-04T21:11:49.861Z,17.85
2022-10-04T21:14:37.734Z,17.55
2022-10-04T21:17:29.409Z,17.70
2022-10-04T21:20:36.065Z,18.70
2022-10-04T21:23:35.538Z,18.40
2022-10-04T21:26:24.743Z,19.40
2022-10-04T21:29:10.659Z,18.85
2022-10-04T21:31:57.424Z,19.35
2022-10-04T21:34:52.952Z,19.75
2022-10-04T21:37:39.674Z,19.45
2022-10-04T21:40:25.126Z,21.55
2022-10-04T21:43:11.079Z,21.58
2022-10-04T21:45:57.195Z,20.42
2022-10-04T21:48:42.805Z,21.95
2022-10-04T21:51:28.846Z,21.10
2022-10-04T21:54:14.634Z,21.08
2022-10-04T21:57:00.657Z,19.45
2022-10-04T21:59:47.299Z,19.67
2022-10-04T22:02:32.813Z,20.55
2022-10-04T22:05:18.462Z,20.67
2022-10-04T22:08:04.174Z,22.05
2022-10-04T22:10:52.241Z,21.50
2022-10-04T22:13:39.977Z,21.15
2022-10-04T22:16:25.875Z,21.77
2022-10-04T22:19:11.582Z,22.38
2022-10-04T22:21:57.354Z,21.88
2022-10-04T22:24:43.473Z,21.85
2022-10-04T22:27:31.083Z,21.83
2022-10-04T22:30:29.933Z,22.63
2022-10-04T22:33:37.380Z,21.85
2022-10-04T22:36:37.411Z,21.88
2022-10-04T22:39:23.030Z,21.52
2022-10-04T22:42:14.283Z,22.30
2022-10-04T22:45:06.227Z,21.40
2022-10-04T22:47:53.421Z,21.70
2022-10-04T22:50:38.973Z,21.10
2022-10-04T22:53:24.776Z,21.13
2022-10-04T22:56:12.982Z,21.92
2022-10-04T22:58:59.943Z,21.25
2022-10-04T23:01:46.532Z,22.45
2022-10-04T23:04:32.393Z,21.23
2022-10-04T23:07:19.278Z,22.17
2022-10-04T23:10:06.413Z,21.60
2022-10-04T23:12:52.451Z,22.52
2022-10-04T23:15:38.203Z,21.55
2022-10-04T23:18:23.910Z,22.80
2022-10-04T23:21:31.318Z,22.42
2022-10-04T23:24:19.683Z,22.83
2022-10-04T23:27:14.316Z,22.48
2022-10-04T23:30:03.288Z,23.67
2022-10-04T23:32:51.774Z,22.63
2022-10-04T23:35:38.761Z,22.95
2022-10-04T23:38:25.288Z,22.27
2022-10-04T23:41:12.046Z,21.73
2022-10-04T23:43:57.851Z,24.65
2022-10-04T23:46:44.050Z,23.55
2022-10-04T23:49:30.275Z,22.40
2022-10-04T23:52:26.216Z,21.38
2022-10-04T23:55:23.910Z,21.55
2022-10-04T23:58:19.061Z,21.92
